sensor_id;sensor_type;location;lat;lon;timestamp;P1;durP1;ratioP1;P2;durP2;ratioP2
5939;SDS011;2995;-31.998;115.906;2024-03-08T00:00:56;1.00;;;0.70;;
5939;SDS011;2995;-31.998;115.906;2024-03-08T00:03:29;4.30;;;0.97;;
5939;SDS011;2995;-31.998;115.906;2024-03-08T00:06:01;1.13;;;0.70;;
5939;SDS011;2995;-31.998;115.906;2024-03-08T00:08:32;2.00;;;1.00;;
5939;SDS011;2995;-31.998;115.906;2024-03-08T00:11:04;2.67;;;1.00;;
5939;SDS011;2995;-31.998;115.906;2024-03-08T00:13:36;2.63;;;0.80;;
5939;SDS011;2995;-31.998;115.906;2024-03-08T00:16:08;8.40;;;1.20;;
5939;SDS011;2995;-31.998;115.906;2024-03-08T00:18:41;1.47;;;0.90;;
5939;SDS011;2995;-31.998;115.906;2024-03-08T00:21:12;2.40;;;0.90;;
5939;SDS011;2995;-31.998;115.906;2024-03-08T00:23:44;1.23;;;0.80;;
5939;SDS011;2995;-31.998;115.906;2024-03-08T00:26:15;1.57;;;0.80;;
5939;SDS011;2995;-31.998;115.906;2024-03-08T00:28:47;1.53;;;0.77;;
5939;SDS011;2995;-31.998;115.906;2024-03-08T00:31:18;3.30;;;0.90;;
5939;SDS011;2995;-31.998;115.906;2024-03-08T00:33:52;1.00;;;0.80;;
5939;SDS011;2995;-31.998;115.906;2024-03-08T00:36:23;1.00;;;0.77;;
5939;SDS011;2995;-31.998;115.906;2024-03-08T00:38:56;2.17;;;0.90;;
5939;SDS011;2995;-31.998;115.906;2024-03-08T00:41:28;3.17;;;1.20;;
5939;SDS011;2995;-31.998;115.906;2024-03-08T00:44:00;1.53;;;0.70;;
5939;SDS011;2995;-31.998;115.906;2024-03-08T00:46:32;1.43;;;0.70;;
5939;SDS011;2995;-31.998;115.906;2024-03-08T00:49:05;1.00;;;0.87;;
5939;SDS011;2995;-31.998;115.906;2024-03-08T00:51:36;2.07;;;0.97;;
5939;SDS011;2995;-31.998;115.906;2024-03-08T00:54:08;1.40;;;0.80;;
5939;SDS011;2995;-31.998;115.906;2024-03-08T00:56:39;1.20;;;0.70;;
5939;SDS011;2995;-31.998;115.906;2024-03-08T00:59:10;1.30;;;0.80;;
5939;SDS011;2995;-31.998;115.906;2024-03-08T01:01:43;1.37;;;0.80;;
5939;SDS011;2995;-31.998;115.906;2024-03-08T01:04:16;1.93;;;0.80;;
5939;SDS011;2995;-31.998;115.906;2024-03-08T01:06:47;3.60;;;1.00;;
5939;SDS011;2995;-31.998;115.906;2024-03-08T01:09:19;1.93;;;1.10;;
5939;SDS011;2995;-31.998;115.906;2024-03-08T01:11:50;2.17;;;0.90;;
5939;SDS011;2995;-31.998;115.906;2024-03-08T01:14:21;1.80;;;0.80;;
5939;SDS011;2995;-31.998;115.906;2024-03-08T01:16:55;2.17;;;0.90;;
5939;SDS011;2995;-31.998;115.906;2024-03-08T01:19:28;1.20;;;0.80;;
5939;SDS011;2995;-31.998;115.906;2024-03-08T01:22:00;2.50;;;0.80;;
5939;SDS011;2995;-31.998;115.906;2024-03-08T01:24:31;3.47;;;1.20;;
5939;SDS011;2995;-31.998;115.906;2024-03-08T01:27:02;2.50;;;1.00;;
5939;SDS011;2995;-31.998;115.906;2024-03-08T01:29:35;3.40;;;1.10;;
5939;SDS011;2995;-31.998;115.906;2024-03-08T01:32:07;2.80;;;0.97;;
5939;SDS011;2995;-31.998;115.906;2024-03-08T01:34:40;5.87;;;1.13;;
5939;SDS011;2995;-31.998;115.906;2024-03-08T01:37:12;1.97;;;1.10;;
5939;SDS011;2995;-31.998;115.906;2024-03-08T01:39:43;8.33;;;1.60;;
5939;SDS011;2995;-31.998;115.906;2024-03-08T01:42:14;5.37;;;1.63;;
5939;SDS011;2995;-31.998;115.906;2024-03-08T01:44:46;3.13;;;1.10;;
5939;SDS011;2995;-31.998;115.906;2024-03-08T01:47:17;3.73;;;1.40;;
5939;SDS011;2995;-31.998;115.906;2024-03-08T01:49:51;2.07;;;1.20;;
5939;SDS011;2995;-31.998;115.906;2024-03-08T01:52:24;2.97;;;1.10;;
5939;SDS011;2995;-31.998;115.906;2024-03-08T01:54:56;3.70;;;1.10;;
5939;SDS011;2995;-31.998;115.906;2024-03-08T01:57:30;3.03;;;1.43;;
5939;SDS011;2995;-31.998;115.906;2024-03-08T02:00:02;4.77;;;1.33;;
5939;SDS011;2995;-31.998;115.906;2024-03-08T02:02:36;5.47;;;1.20;;
5939;SDS011;2995;-31.998;115.906;2024-03-08T02:05:13;2.70;;;1.43;;
5939;SDS011;2995;-31.998;115.906;2024-03-08T02:07:45;2.00;;;1.13;;
5939;SDS011;2995;-31.998;115.906;2024-03-08T02:10:16;1.30;;;1.10;;
5939;SDS011;2995;-31.998;115.906;2024-03-08T02:12:48;2.27;;;1.17;;
5939;SDS011;2995;-31.998;115.906;2024-03-08T02:15:20;1.70;;;0.90;;
5939;SDS011;2995;-31.998;115.906;2024-03-08T02:17:52;3.20;;;0.90;;
5939;SDS011;2995;-31.998;115.906;2024-03-08T02:22:59;2.40;;;1.27;;
5939;SDS011;2995;-31.998;115.906;2024-03-08T02:25:31;5.63;;;1.10;;
5939;SDS011;2995;-31.998;115.906;2024-03-08T02:28:02;1.80;;;1.20;;
5939;SDS011;2995;-31.998;115.906;2024-03-08T02:30:34;2.00;;;1.30;;
5939;SDS011;2995;-31.998;115.906;2024-03-08T02:33:05;3.63;;;1.20;;
5939;SDS011;2995;-31.998;115.906;2024-03-08T02:35:40;4.93;;;1.37;;
5939;SDS011;2995;-31.998;115.906;2024-03-08T02:38:12;2.20;;;0.90;;
5939;SDS011;2995;-31.998;115.906;2024-03-08T02:40:45;2.63;;;1.33;;
5939;SDS011;2995;-31.998;115.906;2024-03-08T02:43:17;3.70;;;1.10;;
5939;SDS011;2995;-31.998;115.906;2024-03-08T02:45:49;1.73;;;1.10;;
5939;SDS011;2995;-31.998;115.906;2024-03-08T02:48:21;1.40;;;0.90;;
5939;SDS011;2995;-31.998;115.906;2024-03-08T02:50:54;2.17;;;1.00;;
5939;SDS011;2995;-31.998;115.906;2024-03-08T02:53:25;1.20;;;0.80;;
5939;SDS011;2995;-31.998;115.906;2024-03-08T02:55:57;1.23;;;0.90;;
5939;SDS011;2995;-31.998;115.906;2024-03-08T02:58:28;1.10;;;0.80;;
5939;SDS011;2995;-31.998;115.906;2024-03-08T03:00:59;1.23;;;0.90;;
5939;SDS011;2995;-31.998;115.906;2024-03-08T03:03:30;1.43;;;0.80;;
5939;SDS011;2995;-31.998;115.906;2024-03-08T03:06:04;1.53;;;0.90;;
5939;SDS011;2995;-31.998;115.906;2024-03-08T03:08:36;1.30;;;0.90;;
5939;SDS011;2995;-31.998;115.906;2024-03-08T03:11:10;1.57;;;0.80;;
5939;SDS011;2995;-31.998;115.906;2024-03-08T03:13:42;1.20;;;0.87;;
5939;SDS011;2995;-31.998;115.906;2024-03-08T03:16:17;1.10;;;0.70;;
5939;SDS011;2995;-31.998;115.906;2024-03-08T03:18:48;2.50;;;1.00;;
5939;SDS011;2995;-31.998;115.906;2024-03-08T03:21:21;1.87;;;0.80;;
5939;SDS011;2995;-31.998;115.906;2024-03-08T03:23:52;1.10;;;0.60;;
5939;SDS011;2995;-31.998;115.906;2024-03-08T03:26:25;2.90;;;0.90;;
5939;SDS011;2995;-31.998;115.906;2024-03-08T03:28:57;1.87;;;0.87;;
5939;SDS011;2995;-31.998;115.906;2024-03-08T03:31:29;1.30;;;0.90;;
5939;SDS011;2995;-31.998;115.906;2024-03-08T03:34:00;1.40;;;0.93;;
5939;SDS011;2995;-31.998;115.906;2024-03-08T03:36:37;3.63;;;1.20;;
5939;SDS011;2995;-31.998;115.906;2024-03-08T03:39:11;2.27;;;1.00;;
5939;SDS011;2995;-31.998;115.906;2024-03-08T03:41:46;1.77;;;1.13;;
5939;SDS011;2995;-31.998;115.906;2024-03-08T03:44:18;1.57;;;1.27;;
5939;SDS011;2995;-31.998;115.906;2024-03-08T03:46:50;1.70;;;1.10;;
5939;SDS011;2995;-31.998;115.906;2024-03-08T03:49:21;2.43;;;1.20;;
5939;SDS011;2995;-31.998;115.906;2024-03-08T03:51:54;1.97;;;1.17;;
5939;SDS011;2995;-31.998;115.906;2024-03-08T03:54:26;1.50;;;1.10;;
5939;SDS011;2995;-31.998;115.906;2024-03-08T03:56:59;3.30;;;1.30;;
5939;SDS011;2995;-31.998;115.906;2024-03-08T03:59:30;1.77;;;1.10;;
5939;SDS011;2995;-31.998;115.906;2024-03-08T04:02:02;3.10;;;1.40;;
5939;SDS011;2995;-31.998;115.906;2024-03-08T04:04:33;5.33;;;1.40;;
5939;SDS011;2995;-31.998;115.906;2024-03-08T04:07:06;4.17;;;1.90;;
5939;SDS011;2995;-31.998;115.906;2024-03-08T04:09:38;4.60;;;1.60;;
5939;SDS011;2995;-31.998;115.906;2024-03-08T04:12:09;5.47;;;2.00;;
5939;SDS011;2995;-31.998;115.906;2024-03-08T04:14:42;3.83;;;1.63;;
5939;SDS011;2995;-31.998;115.906;2024-03-08T04:17:13;5.03;;;1.97;;
5939;SDS011;2995;-31.998;115.906;2024-03-08T04:19:44;6.87;;;1.83;;
5939;SDS011;2995;-31.998;115.906;2024-03-08T04:22:18;6.57;;;2.07;;
5939;SDS011;2995;-31.998;115.906;2024-03-08T04:24:49;6.80;;;2.03;;
5939;SDS011;2995;-31.998;115.906;2024-03-08T04:27:20;9.50;;;2.73;;
5939;SDS011;2995;-31.998;115.906;2024-03-08T04:29:52;6.87;;;2.00;;
5939;SDS011;2995;-31.998;115.906;2024-03-08T04:32:23;6.87;;;2.43;;
5939;SDS011;2995;-31.998;115.906;2024-03-08T04:34:55;6.70;;;2.80;;
5939;SDS011;2995;-31.998;115.906;2024-03-08T04:37:29;6.77;;;1.93;;
5939;SDS011;2995;-31.998;115.906;2024-03-08T04:40:00;4.97;;;2.17;;
5939;SDS011;2995;-31.998;115.906;2024-03-08T04:42:32;5.57;;;2.23;;
5939;SDS011;2995;-31.998;115.906;2024-03-08T04:45:04;6.63;;;2.80;;
5939;SDS011;2995;-31.998;115.906;2024-03-08T04:47:37;7.07;;;2.40;;
5939;SDS011;2995;-31.998;115.906;2024-03-08T04:50:08;5.53;;;1.70;;
5939;SDS011;2995;-31.998;115.906;2024-03-08T04:52:42;4.60;;;2.20;;
5939;SDS011;2995;-31.998;115.906;2024-03-08T04:55:14;8.27;;;2.47;;
5939;SDS011;2995;-31.998;115.906;2024-03-08T04:57:47;9.33;;;2.50;;
5939;SDS011;2995;-31.998;115.906;2024-03-08T05:00:19;7.17;;;2.10;;
5939;SDS011;2995;-31.998;115.906;2024-03-08T05:02:51;5.63;;;1.67;;
5939;SDS011;2995;-31.998;115.906;2024-03-08T05:05:22;7.83;;;2.20;;
5939;SDS011;2995;-31.998;115.906;2024-03-08T05:07:57;8.10;;;2.40;;
5939;SDS011;2995;-31.998;115.906;2024-03-08T05:10:29;12.47;;;2.03;;
5939;SDS011;2995;-31.998;115.906;2024-03-08T05:13:00;5.40;;;1.97;;
5939;SDS011;2995;-31.998;115.906;2024-03-08T05:15:31;7.87;;;2.70;;
5939;SDS011;2995;-31.998;115.906;2024-03-08T05:18:02;7.80;;;2.20;;
5939;SDS011;2995;-31.998;115.906;2024-03-08T05:20:34;7.90;;;2.40;;
5939;SDS011;2995;-31.998;115.906;2024-03-08T05:23:08;9.57;;;2.33;;
5939;SDS011;2995;-31.998;115.906;2024-03-08T05:25:39;10.00;;;3.47;;
5939;SDS011;2995;-31.998;115.906;2024-03-08T05:28:10;19.30;;;3.57;;
5939;SDS011;2995;-31.998;115.906;2024-03-08T05:30:42;5.50;;;2.83;;
5939;SDS011;2995;-31.998;115.906;2024-03-08T05:33:13;6.73;;;2.33;;
5939;SDS011;2995;-31.998;115.906;2024-03-08T05:35:45;8.13;;;2.50;;
5939;SDS011;2995;-31.998;115.906;2024-03-08T05:38:18;10.07;;;3.07;;
5939;SDS011;2995;-31.998;115.906;2024-03-08T05:40:50;14.37;;;3.10;;
5939;SDS011;2995;-31.998;115.906;2024-03-08T05:43:22;9.43;;;3.13;;
5939;SDS011;2995;-31.998;115.906;2024-03-08T05:45:53;10.30;;;3.30;;
5939;SDS011;2995;-31.998;115.906;2024-03-08T05:48:24;10.77;;;3.60;;
5939;SDS011;2995;-31.998;115.906;2024-03-08T05:50:55;10.67;;;3.30;;
5939;SDS011;2995;-31.998;115.906;2024-03-08T05:53:30;11.00;;;3.43;;
5939;SDS011;2995;-31.998;115.906;2024-03-08T05:56:01;8.90;;;2.83;;
5939;SDS011;2995;-31.998;115.906;2024-03-08T05:58:32;9.60;;;3.40;;
5939;SDS011;2995;-31.998;115.906;2024-03-08T06:01:04;9.33;;;3.53;;
5939;SDS011;2995;-31.998;115.906;2024-03-08T06:03:35;18.77;;;3.30;;
5939;SDS011;2995;-31.998;115.906;2024-03-08T06:06:12;16.93;;;4.10;;
5939;SDS011;2995;-31.998;115.906;2024-03-08T06:08:46;11.83;;;3.20;;
5939;SDS011;2995;-31.998;115.906;2024-03-08T06:11:17;8.40;;;2.70;;
5939;SDS011;2995;-31.998;115.906;2024-03-08T06:13:49;6.50;;;2.30;;
5939;SDS011;2995;-31.998;115.906;2024-03-08T06:16:26;8.33;;;3.20;;
5939;SDS011;2995;-31.998;115.906;2024-03-08T06:18:57;6.57;;;2.20;;
5939;SDS011;2995;-31.998;115.906;2024-03-08T06:21:29;5.57;;;2.63;;
5939;SDS011;2995;-31.998;115.906;2024-03-08T06:24:02;10.40;;;2.30;;
5939;SDS011;2995;-31.998;115.906;2024-03-08T06:26:34;9.40;;;3.03;;
5939;SDS011;2995;-31.998;115.906;2024-03-08T06:29:05;13.37;;;2.73;;
5939;SDS011;2995;-31.998;115.906;2024-03-08T06:31:36;17.57;;;2.73;;
5939;SDS011;2995;-31.998;115.906;2024-03-08T06:34:07;7.77;;;2.20;;
5939;SDS011;2995;-31.998;115.906;2024-03-08T06:36:39;8.10;;;2.20;;
5939;SDS011;2995;-31.998;115.906;2024-03-08T06:39:13;5.10;;;1.77;;
5939;SDS011;2995;-31.998;115.906;2024-03-08T06:41:44;7.00;;;1.90;;
5939;SDS011;2995;-31.998;115.906;2024-03-08T06:44:17;6.47;;;1.87;;
5939;SDS011;2995;-31.998;115.906;2024-03-08T06:46:49;7.07;;;2.40;;
5939;SDS011;2995;-31.998;115.906;2024-03-08T06:49:20;8.43;;;2.30;;
5939;SDS011;2995;-31.998;115.906;2024-03-08T06:51:53;13.73;;;2.87;;
5939;SDS011;2995;-31.998;115.906;2024-03-08T06:54:26;6.70;;;2.50;;
5939;SDS011;2995;-31.998;115.906;2024-03-08T06:56:57;9.63;;;2.87;;
5939;SDS011;2995;-31.998;115.906;2024-03-08T06:59:29;13.83;;;3.17;;
5939;SDS011;2995;-31.998;115.906;2024-03-08T07:02:02;9.87;;;2.40;;
5939;SDS011;2995;-31.998;115.906;2024-03-08T07:04:35;6.17;;;1.77;;
5939;SDS011;2995;-31.998;115.906;2024-03-08T07:07:06;20.80;;;2.80;;
5939;SDS011;2995;-31.998;115.906;2024-03-08T07:09:40;9.37;;;2.30;;
5939;SDS011;2995;-31.998;115.906;2024-03-08T07:12:16;3.70;;;1.77;;
5939;SDS011;2995;-31.998;115.906;2024-03-08T07:14:47;9.60;;;2.20;;
5939;SDS011;2995;-31.998;115.906;2024-03-08T07:17:18;6.10;;;1.93;;
5939;SDS011;2995;-31.998;115.906;2024-03-08T07:19:50;8.15;;;1.80;;
5939;SDS011;2995;-31.998;115.906;2024-03-08T07:22:23;4.90;;;1.80;;
5939;SDS011;2995;-31.998;115.906;2024-03-08T07:24:56;5.43;;;1.37;;
5939;SDS011;2995;-31.998;115.906;2024-03-08T07:27:46;10.10;;;2.00;;
5939;SDS011;2995;-31.998;115.906;2024-03-08T07:30:18;6.67;;;1.97;;
5939;SDS011;2995;-31.998;115.906;2024-03-08T07:33:05;4.00;;;1.40;;
5939;SDS011;2995;-31.998;115.906;2024-03-08T07:35:38;3.40;;;1.33;;
5939;SDS011;2995;-31.998;115.906;2024-03-08T07:38:10;13.53;;;2.50;;
5939;SDS011;2995;-31.998;115.906;2024-03-08T07:40:44;8.83;;;2.37;;
5939;SDS011;2995;-31.998;115.906;2024-03-08T07:43:16;12.83;;;1.93;;
5939;SDS011;2995;-31.998;115.906;2024-03-08T07:45:48;5.63;;;2.37;;
5939;SDS011;2995;-31.998;115.906;2024-03-08T07:48:21;9.33;;;2.60;;
5939;SDS011;2995;-31.998;115.906;2024-03-08T07:50:53;7.70;;;2.37;;
5939;SDS011;2995;-31.998;115.906;2024-03-08T07:53:24;11.83;;;2.57;;
5939;SDS011;2995;-31.998;115.906;2024-03-08T07:55:58;7.57;;;1.80;;
5939;SDS011;2995;-31.998;115.906;2024-03-08T07:58:29;14.53;;;1.90;;
5939;SDS011;2995;-31.998;115.906;2024-03-08T08:01:00;4.67;;;1.73;;
5939;SDS011;2995;-31.998;115.906;2024-03-08T08:03:31;7.90;;;2.30;;
5939;SDS011;2995;-31.998;115.906;2024-03-08T08:06:04;7.20;;;1.73;;
5939;SDS011;2995;-31.998;115.906;2024-03-08T08:08:36;6.57;;;2.20;;
5939;SDS011;2995;-31.998;115.906;2024-03-08T08:11:09;8.43;;;1.90;;
5939;SDS011;2995;-31.998;115.906;2024-03-08T08:13:42;5.03;;;1.57;;
5939;SDS011;2995;-31.998;115.906;2024-03-08T08:16:13;10.70;;;2.20;;
5939;SDS011;2995;-31.998;115.906;2024-03-08T08:18:44;7.43;;;2.60;;
5939;SDS011;2995;-31.998;115.906;2024-03-08T08:21:15;13.13;;;2.90;;
5939;SDS011;2995;-31.998;115.906;2024-03-08T08:23:48;10.27;;;2.53;;
5939;SDS011;2995;-31.998;115.906;2024-03-08T08:26:21;9.80;;;2.20;;
5939;SDS011;2995;-31.998;115.906;2024-03-08T08:28:53;11.17;;;2.67;;
5939;SDS011;2995;-31.998;115.906;2024-03-08T08:31:25;12.70;;;5.17;;
5939;SDS011;2995;-31.998;115.906;2024-03-08T08:33:57;8.70;;;3.10;;
5939;SDS011;2995;-31.998;115.906;2024-03-08T08:36:29;9.40;;;2.70;;
5939;SDS011;2995;-31.998;115.906;2024-03-08T08:39:00;7.20;;;2.80;;
5939;SDS011;2995;-31.998;115.906;2024-03-08T08:41:40;8.40;;;3.03;;
5939;SDS011;2995;-31.998;115.906;2024-03-08T08:44:12;7.40;;;3.33;;
5939;SDS011;2995;-31.998;115.906;2024-03-08T08:46:43;12.03;;;7.67;;
5939;SDS011;2995;-31.998;115.906;2024-03-08T08:49:14;13.03;;;10.93;;
5939;SDS011;2995;-31.998;115.906;2024-03-08T08:51:49;15.47;;;10.27;;
5939;SDS011;2995;-31.998;115.906;2024-03-08T08:54:20;13.87;;;4.23;;
5939;SDS011;2995;-31.998;115.906;2024-03-08T08:56:53;7.43;;;2.23;;
5939;SDS011;2995;-31.998;115.906;2024-03-08T08:59:24;6.50;;;2.00;;
5939;SDS011;2995;-31.998;115.906;2024-03-08T09:01:56;10.37;;;1.90;;
5939;SDS011;2995;-31.998;115.906;2024-03-08T09:04:27;9.13;;;1.70;;
5939;SDS011;2995;-31.998;115.906;2024-03-08T09:06:59;9.50;;;2.17;;
5939;SDS011;2995;-31.998;115.906;2024-03-08T09:09:32;4.03;;;1.63;;
5939;SDS011;2995;-31.998;115.906;2024-03-08T09:12:07;11.40;;;1.90;;
5939;SDS011;2995;-31.998;115.906;2024-03-08T09:14:39;8.77;;;1.40;;
5939;SDS011;2995;-31.998;115.906;2024-03-08T09:17:11;10.23;;;1.60;;
5939;SDS011;2995;-31.998;115.906;2024-03-08T09:19:43;10.60;;;1.90;;
5939;SDS011;2995;-31.998;115.906;2024-03-08T09:22:15;7.00;;;2.03;;
5939;SDS011;2995;-31.998;115.906;2024-03-08T09:24:46;10.43;;;1.90;;
5939;SDS011;2995;-31.998;115.906;2024-03-08T09:27:19;9.33;;;2.03;;
5939;SDS011;2995;-31.998;115.906;2024-03-08T09:29:50;10.77;;;2.07;;
5939;SDS011;2995;-31.998;115.906;2024-03-08T09:32:22;7.87;;;2.03;;
5939;SDS011;2995;-31.998;115.906;2024-03-08T09:34:53;8.17;;;2.00;;
5939;SDS011;2995;-31.998;115.906;2024-03-08T09:37:24;9.93;;;2.07;;
5939;SDS011;2995;-31.998;115.906;2024-03-08T09:39:55;7.53;;;1.90;;
5939;SDS011;2995;-31.998;115.906;2024-03-08T09:42:32;8.30;;;1.73;;
5939;SDS011;2995;-31.998;115.906;2024-03-08T09:45:05;9.30;;;1.70;;
5939;SDS011;2995;-31.998;115.906;2024-03-08T09:47:42;14.13;;;2.03;;
5939;SDS011;2995;-31.998;115.906;2024-03-08T09:50:15;9.13;;;1.73;;
5939;SDS011;2995;-31.998;115.906;2024-03-08T09:52:47;9.97;;;1.77;;
5939;SDS011;2995;-31.998;115.906;2024-03-08T09:55:18;6.70;;;1.70;;
5939;SDS011;2995;-31.998;115.906;2024-03-08T09:57:53;7.03;;;1.47;;
5939;SDS011;2995;-31.998;115.906;2024-03-08T10:00:41;5.00;;;1.80;;
5939;SDS011;2995;-31.998;115.906;2024-03-08T10:03:13;4.77;;;1.33;;
5939;SDS011;2995;-31.998;115.906;2024-03-08T10:05:44;6.53;;;1.97;;
5939;SDS011;2995;-31.998;115.906;2024-03-08T10:08:15;12.87;;;1.50;;
5939;SDS011;2995;-31.998;115.906;2024-03-08T10:10:47;6.10;;;1.63;;
5939;SDS011;2995;-31.998;115.906;2024-03-08T10:13:22;7.60;;;1.57;;
5939;SDS011;2995;-31.998;115.906;2024-03-08T10:15:54;5.40;;;1.70;;
5939;SDS011;2995;-31.998;115.906;2024-03-08T10:18:26;8.17;;;1.63;;
5939;SDS011;2995;-31.998;115.906;2024-03-08T10:21:03;4.00;;;1.30;;
5939;SDS011;2995;-31.998;115.906;2024-03-08T10:23:36;9.40;;;1.53;;
5939;SDS011;2995;-31.998;115.906;2024-03-08T10:26:12;3.70;;;1.20;;
5939;SDS011;2995;-31.998;115.906;2024-03-08T10:28:47;4.67;;;1.20;;
5939;SDS011;2995;-31.998;115.906;2024-03-08T10:31:19;4.70;;;1.40;;
5939;SDS011;2995;-31.998;115.906;2024-03-08T10:33:50;4.73;;;1.93;;
5939;SDS011;2995;-31.998;115.906;2024-03-08T10:36:21;3.97;;;1.50;;
5939;SDS011;2995;-31.998;115.906;2024-03-08T10:38:52;6.80;;;1.60;;
5939;SDS011;2995;-31.998;115.906;2024-03-08T10:41:25;5.60;;;1.53;;
5939;SDS011;2995;-31.998;115.906;2024-03-08T10:44:14;7.40;;;1.50;;
5939;SDS011;2995;-31.998;115.906;2024-03-08T10:46:56;6.10;;;1.50;;
5939;SDS011;2995;-31.998;115.906;2024-03-08T10:49:32;4.90;;;1.60;;
5939;SDS011;2995;-31.998;115.906;2024-03-08T10:52:07;8.83;;;2.37;;
5939;SDS011;2995;-31.998;115.906;2024-03-08T10:54:41;4.73;;;1.30;;
5939;SDS011;2995;-31.998;115.906;2024-03-08T10:57:14;5.87;;;1.73;;
5939;SDS011;2995;-31.998;115.906;2024-03-08T10:59:52;8.47;;;1.67;;
5939;SDS011;2995;-31.998;115.906;2024-03-08T11:02:24;9.93;;;1.80;;
5939;SDS011;2995;-31.998;115.906;2024-03-08T11:04:56;9.30;;;1.50;;
5939;SDS011;2995;-31.998;115.906;2024-03-08T11:07:27;6.87;;;1.77;;
5939;SDS011;2995;-31.998;115.906;2024-03-08T11:10:02;8.90;;;1.57;;
5939;SDS011;2995;-31.998;115.906;2024-03-08T11:12:37;11.53;;;1.67;;
5939;SDS011;2995;-31.998;115.906;2024-03-08T11:15:12;8.37;;;1.83;;
5939;SDS011;2995;-31.998;115.906;2024-03-08T11:17:48;7.70;;;1.80;;
5939;SDS011;2995;-31.998;115.906;2024-03-08T11:20:23;6.63;;;1.80;;
5939;SDS011;2995;-31.998;115.906;2024-03-08T11:22:54;4.83;;;1.60;;
5939;SDS011;2995;-31.998;115.906;2024-03-08T11:25:33;11.10;;;2.60;;
5939;SDS011;2995;-31.998;115.906;2024-03-08T11:28:13;10.93;;;2.30;;
5939;SDS011;2995;-31.998;115.906;2024-03-08T11:33:52;9.40;;;2.50;;
5939;SDS011;2995;-31.998;115.906;2024-03-08T11:36:25;7.13;;;2.23;;
5939;SDS011;2995;-31.998;115.906;2024-03-08T11:38:58;5.83;;;2.33;;
5939;SDS011;2995;-31.998;115.906;2024-03-08T11:41:36;15.90;;;2.53;;
5939;SDS011;2995;-31.998;115.906;2024-03-08T11:44:09;8.40;;;2.60;;
5939;SDS011;2995;-31.998;115.906;2024-03-08T11:46:44;11.23;;;2.40;;
5939;SDS011;2995;-31.998;115.906;2024-03-08T11:49:15;9.27;;;2.00;;
5939;SDS011;2995;-31.998;115.906;2024-03-08T11:51:46;23.20;;;3.50;;
5939;SDS011;2995;-31.998;115.906;2024-03-08T11:54:20;6.90;;;2.00;;
5939;SDS011;2995;-31.998;115.906;2024-03-08T11:56:53;16.97;;;2.30;;
5939;SDS011;2995;-31.998;115.906;2024-03-08T11:59:27;9.97;;;2.40;;
5939;SDS011;2995;-31.998;115.906;2024-03-08T12:02:02;10.03;;;2.53;;
5939;SDS011;2995;-31.998;115.906;2024-03-08T12:04:36;7.83;;;2.37;;
5939;SDS011;2995;-31.998;115.906;2024-03-08T12:07:09;14.37;;;2.67;;
5939;SDS011;2995;-31.998;115.906;2024-03-08T12:09:56;17.80;;;3.27;;
5939;SDS011;2995;-31.998;115.906;2024-03-08T12:12:47;16.43;;;2.57;;
5939;SDS011;2995;-31.998;115.906;2024-03-08T12:15:20;8.43;;;2.60;;
5939;SDS011;2995;-31.998;115.906;2024-03-08T12:17:54;14.10;;;2.53;;
5939;SDS011;2995;-31.998;115.906;2024-03-08T12:20:27;17.00;;;3.07;;
5939;SDS011;2995;-31.998;115.906;2024-03-08T12:22:58;8.90;;;3.30;;
5939;SDS011;2995;-31.998;115.906;2024-03-08T12:25:31;6.70;;;2.37;;
5939;SDS011;2995;-31.998;115.906;2024-03-08T12:28:09;13.03;;;3.07;;
5939;SDS011;2995;-31.998;115.906;2024-03-08T12:30:47;7.37;;;2.37;;
5939;SDS011;2995;-31.998;115.906;2024-03-08T12:33:22;9.60;;;2.57;;
5939;SDS011;2995;-31.998;115.906;2024-03-08T12:35:53;13.90;;;2.70;;
5939;SDS011;2995;-31.998;115.906;2024-03-08T12:38:27;7.60;;;1.80;;
5939;SDS011;2995;-31.998;115.906;2024-03-08T12:40:58;11.17;;;2.13;;
5939;SDS011;2995;-31.998;115.906;2024-03-08T12:43:31;12.40;;;2.97;;
5939;SDS011;2995;-31.998;115.906;2024-03-08T12:46:02;9.20;;;2.27;;
5939;SDS011;2995;-31.998;115.906;2024-03-08T12:48:37;11.47;;;3.30;;
5939;SDS011;2995;-31.998;115.906;2024-03-08T12:51:13;8.83;;;2.60;;
5939;SDS011;2995;-31.998;115.906;2024-03-08T12:53:45;11.73;;;2.87;;
5939;SDS011;2995;-31.998;115.906;2024-03-08T12:56:28;13.00;;;4.00;;
5939;SDS011;2995;-31.998;115.906;2024-03-08T12:59:00;11.97;;;2.47;;
5939;SDS011;2995;-31.998;115.906;2024-03-08T13:01:31;11.13;;;2.63;;
5939;SDS011;2995;-31.998;115.906;2024-03-08T13:04:05;16.67;;;3.87;;
5939;SDS011;2995;-31.998;115.906;2024-03-08T13:06:37;14.40;;;3.33;;
5939;SDS011;2995;-31.998;115.906;2024-03-08T13:09:08;13.53;;;3.23;;
5939;SDS011;2995;-31.998;115.906;2024-03-08T13:11:40;13.17;;;3.37;;
5939;SDS011;2995;-31.998;115.906;2024-03-08T13:14:12;13.00;;;3.03;;
5939;SDS011;2995;-31.998;115.906;2024-03-08T13:16:43;17.00;;;3.53;;
5939;SDS011;2995;-31.998;115.906;2024-03-08T13:19:17;12.10;;;3.13;;
5939;SDS011;2995;-31.998;115.906;2024-03-08T13:21:49;8.33;;;2.60;;
5939;SDS011;2995;-31.998;115.906;2024-03-08T13:24:20;16.47;;;2.97;;
5939;SDS011;2995;-31.998;115.906;2024-03-08T13:26:51;13.90;;;2.97;;
5939;SDS011;2995;-31.998;115.906;2024-03-08T13:29:22;14.73;;;3.20;;
5939;SDS011;2995;-31.998;115.906;2024-03-08T13:31:54;22.00;;;3.03;;
5939;SDS011;2995;-31.998;115.906;2024-03-08T13:34:30;15.10;;;3.33;;
5939;SDS011;2995;-31.998;115.906;2024-03-08T13:37:01;8.37;;;2.43;;
5939;SDS011;2995;-31.998;115.906;2024-03-08T13:39:32;16.30;;;2.47;;
5939;SDS011;2995;-31.998;115.906;2024-03-08T13:42:07;13.60;;;3.17;;
5939;SDS011;2995;-31.998;115.906;2024-03-08T13:44:39;15.23;;;3.30;;
5939;SDS011;2995;-31.998;115.906;2024-03-08T13:47:14;19.30;;;3.40;;
5939;SDS011;2995;-31.998;115.906;2024-03-08T13:49:48;14.23;;;2.77;;
5939;SDS011;2995;-31.998;115.906;2024-03-08T13:52:19;14.50;;;2.60;;
5939;SDS011;2995;-31.998;115.906;2024-03-08T13:54:51;11.30;;;2.60;;
5939;SDS011;2995;-31.998;115.906;2024-03-08T13:57:22;9.90;;;2.33;;
5939;SDS011;2995;-31.998;115.906;2024-03-08T13:59:53;12.33;;;3.13;;
5939;SDS011;2995;-31.998;115.906;2024-03-08T14:02:24;10.17;;;3.47;;
5939;SDS011;2995;-31.998;115.906;2024-03-08T14:04:59;10.70;;;3.00;;
5939;SDS011;2995;-31.998;115.906;2024-03-08T14:07:30;19.37;;;4.10;;
5939;SDS011;2995;-31.998;115.906;2024-03-08T14:10:01;20.83;;;3.43;;
5939;SDS011;2995;-31.998;115.906;2024-03-08T14:12:33;22.07;;;4.67;;
5939;SDS011;2995;-31.998;115.906;2024-03-08T14:15:04;14.57;;;3.83;;
5939;SDS011;2995;-31.998;115.906;2024-03-08T14:17:37;14.67;;;3.83;;
5939;SDS011;2995;-31.998;115.906;2024-03-08T14:20:11;10.87;;;2.97;;
5939;SDS011;2995;-31.998;115.906;2024-03-08T14:22:44;13.10;;;3.40;;
5939;SDS011;2995;-31.998;115.906;2024-03-08T14:25:17;13.40;;;2.83;;
5939;SDS011;2995;-31.998;115.906;2024-03-08T14:27:50;15.00;;;2.77;;
5939;SDS011;2995;-31.998;115.906;2024-03-08T14:30:24;13.50;;;3.03;;
5939;SDS011;2995;-31.998;115.906;2024-03-08T14:33:01;16.27;;;2.90;;
5939;SDS011;2995;-31.998;115.906;2024-03-08T14:35:37;15.73;;;3.30;;
5939;SDS011;2995;-31.998;115.906;2024-03-08T14:38:10;18.30;;;3.67;;
5939;SDS011;2995;-31.998;115.906;2024-03-08T14:40:43;20.87;;;3.97;;
5939;SDS011;2995;-31.998;115.906;2024-03-08T14:43:14;17.07;;;3.40;;
5939;SDS011;2995;-31.998;115.906;2024-03-08T14:45:46;15.80;;;4.00;;
5939;SDS011;2995;-31.998;115.906;2024-03-08T14:48:17;13.10;;;3.10;;
5939;SDS011;2995;-31.998;115.906;2024-03-08T14:50:51;10.53;;;2.73;;
5939;SDS011;2995;-31.998;115.906;2024-03-08T14:53:22;12.90;;;3.27;;
5939;SDS011;2995;-31.998;115.906;2024-03-08T14:55:53;23.33;;;3.40;;
5939;SDS011;2995;-31.998;115.906;2024-03-08T14:58:25;15.47;;;3.70;;
5939;SDS011;2995;-31.998;115.906;2024-03-08T15:00:56;14.17;;;2.67;;
5939;SDS011;2995;-31.998;115.906;2024-03-08T15:03:28;14.90;;;3.17;;
5939;SDS011;2995;-31.998;115.906;2024-03-08T15:06:01;10.83;;;3.67;;
5939;SDS011;2995;-31.998;115.906;2024-03-08T15:08:34;16.23;;;2.90;;